createdAt,value
2017-05-08T00:00:35.045Z,13.7
2017-05-08T00:01:44.006Z,13.71
2017-05-08T00:02:53.287Z,13.59
2017-05-08T00:04:02.329Z,13.55
2017-05-08T00:05:11.281Z,13.69
2017-05-08T00:06:20.538Z,13.66
2017-05-08T00:07:29.498Z,13.6
2017-05-08T00:08:38.456Z,13.64
2017-05-08T00:09:47.453Z,13.67
2017-05-08T00:10:56.414Z,13.63
2017-05-08T00:12:05.675Z,13.63
2017-05-08T00:13:14.631Z,13.62
2017-05-08T00:14:23.590Z,13.64
2017-05-08T00:15:32.547Z,13.6
2017-05-08T00:16:41.503Z,13.59
2017-05-08T00:17:50.714Z,13.52
2017-05-08T00:18:59.668Z,13.46
2017-05-08T00:20:08.626Z,13.46
2017-05-08T00:21:17.584Z,13.41
2017-05-08T00:22:26.540Z,13.39
2017-05-08T00:23:35.795Z,13.36
2017-05-08T00:24:44.785Z,13.41
2017-05-08T00:25:53.742Z,13.23
2017-05-08T00:27:02.703Z,13.28
2017-05-08T00:28:11.662Z,13.19
2017-05-08T00:29:20.866Z,13.19
2017-05-08T00:30:29.829Z,13.22
2017-05-08T00:31:38.792Z,13.22
2017-05-08T00:32:47.757Z,13.22
2017-05-08T00:33:56.718Z,13.23
2017-05-08T00:35:05.980Z,13.17
2017-05-08T00:36:14.960Z,13.23
2017-05-08T00:37:24.514Z,13.11
2017-05-08T00:38:33.482Z,13.15
2017-05-08T00:39:42.442Z,13.04
2017-05-08T00:40:51.699Z,12.95
2017-05-08T00:42:00.656Z,12.9
2017-05-08T00:43:09.620Z,12.96
2017-05-08T00:44:18.626Z,13.03
2017-05-08T00:45:27.582Z,13.04
2017-05-08T00:46:36.790Z,13.12
2017-05-08T00:47:45.749Z,13.14
2017-05-08T00:48:54.708Z,13.23
2017-05-08T00:50:03.669Z,13.22
2017-05-08T00:51:12.633Z,13.22
2017-05-08T00:52:21.872Z,13.2
2017-05-08T00:53:30.832Z,13.23
2017-05-08T00:54:39.798Z,13.25
2017-05-08T00:55:48.760Z,13.28
2017-05-08T00:56:57.715Z,13.25
2017-05-08T00:58:06.982Z,13.19
2017-05-08T00:59:15.952Z,13.23
2017-05-08T01:00:24.912Z,13.26
2017-05-08T01:01:33.871Z,13.26
2017-05-08T01:02:42.830Z,13.3
2017-05-08T01:03:52.093Z,13.28
2017-05-08T01:05:01.372Z,13.44
2017-05-08T01:06:10.330Z,13.44
2017-05-08T01:07:19.397Z,13.33
2017-05-08T01:08:28.356Z,13.44
2017-05-08T01:09:37.561Z,13.44
2017-05-08T01:10:46.535Z,13.42
2017-05-08T01:11:55.489Z,13.45
2017-05-08T01:13:04.455Z,13.49
2017-05-08T01:14:13.751Z,13.42
2017-05-08T01:15:23.017Z,13.46
2017-05-08T01:16:31.978Z,13.42
2017-05-08T01:17:41.022Z,13.46
2017-05-08T01:18:49.978Z,13.51
2017-05-08T01:19:58.938Z,13.52
2017-05-08T01:21:08.200Z,13.52
2017-05-08T01:22:17.155Z,13.57
2017-05-08T01:23:26.121Z,13.44
2017-05-08T01:24:35.075Z,13.51
2017-05-08T01:25:44.066Z,13.45
2017-05-08T01:26:53.319Z,13.55
2017-05-08T01:28:02.281Z,13.51
2017-05-08T01:29:11.243Z,13.49
2017-05-08T01:30:20.203Z,13.45
2017-05-08T01:31:29.168Z,13.48
2017-05-08T01:32:38.429Z,13.45
2017-05-08T01:33:47.386Z,13.36
2017-05-08T01:34:56.350Z,13.52
2017-05-08T01:36:05.313Z,13.46
2017-05-08T01:37:14.358Z,13.54
2017-05-08T01:38:23.943Z,13.45
2017-05-08T01:39:33.275Z,13.52
2017-05-08T01:40:42.239Z,13.49
2017-05-08T01:41:51.211Z,13.54
2017-05-08T01:43:00.180Z,13.49
2017-05-08T01:44:09.390Z,13.52
2017-05-08T01:45:18.350Z,13.52
2017-05-08T01:46:27.307Z,13.55
2017-05-08T01:47:36.259Z,13.55
2017-05-08T01:48:45.223Z,13.52
2017-05-08T01:49:54.482Z,13.46
2017-05-08T01:51:03.470Z,13.54
2017-05-08T01:52:12.426Z,13.48
2017-05-08T01:53:21.380Z,13.52
2017-05-08T01:54:30.347Z,13.51
2017-05-08T01:55:39.606Z,13.55
2017-05-08T01:56:48.563Z,13.57
2017-05-08T01:57:57.523Z,13.55
2017-05-08T01:59:06.481Z,13.59
2017-05-08T02:00:15.444Z,13.59
2017-05-08T02:01:24.700Z,13.59
2017-05-08T02:02:33.656Z,13.6
2017-05-08T02:03:42.613Z,13.52
2017-05-08T02:04:51.570Z,13.52
2017-05-08T02:06:00.543Z,13.49
2017-05-08T02:07:09.798Z,13.52
2017-05-08T02:08:18.763Z,13.57
2017-05-08T02:09:27.768Z,13.49
2017-05-08T02:10:36.730Z,13.52
2017-05-08T02:11:45.686Z,13.51
2017-05-08T02:12:54.946Z,13.52
2017-05-08T02:14:03.901Z,13.51
2017-05-08T02:15:12.858Z,13.42
2017-05-08T02:16:21.814Z,13.49
2017-05-08T02:17:30.773Z,13.51
2017-05-08T02:18:40.030Z,13.39
2017-05-08T02:19:48.992Z,13.49
2017-05-08T02:20:57.950Z,13.41
2017-05-08T02:22:06.909Z,13.39
2017-05-08T02:23:15.862Z,13.41
2017-05-08T02:24:25.128Z,13.39
2017-05-08T02:25:34.086Z,13.46
2017-05-08T02:26:43.131Z,13.3
2017-05-08T02:27:52.408Z,13.3
2017-05-08T02:29:01.373Z,13.25
2017-05-08T02:30:10.630Z,13.22
2017-05-08T02:31:19.586Z,13.26
2017-05-08T02:32:28.551Z,13.2
2017-05-08T02:33:37.510Z,13.22
2017-05-08T02:34:46.491Z,13.25
2017-05-08T02:35:55.751Z,13.28
2017-05-08T02:37:04.709Z,13.25
2017-05-08T02:38:13.690Z,13.17
2017-05-08T02:39:22.645Z,13.19
2017-05-08T02:40:31.736Z,13.25
2017-05-08T02:41:40.993Z,13.2
2017-05-08T02:42:50.014Z,13.17
2017-05-08T02:43:58.977Z,13.14
2017-05-08T02:45:07.938Z,13.17
2017-05-08T02:46:16.913Z,13.15
2017-05-08T02:47:26.174Z,13.12
2017-05-08T02:48:35.131Z,13.15
2017-05-08T02:49:44.092Z,13.15
2017-05-08T02:50:53.142Z,13.15
2017-05-08T02:52:02.098Z,13.15
2017-05-08T02:53:11.310Z,13.14
2017-05-08T02:54:20.595Z,13.14
2017-05-08T02:55:29.555Z,13.14
2017-05-08T02:56:38.513Z,13.14
2017-05-08T02:57:47.469Z,13.15
2017-05-08T02:58:56.751Z,13.11
2017-05-08T03:00:05.725Z,13.14
2017-05-08T03:01:14.777Z,13.19
2017-05-08T03:02:23.737Z,13.23
2017-05-08T03:03:32.728Z,13.2
2017-05-08T03:04:41.992Z,13.14
2017-05-08T03:05:51.043Z,13.15
2017-05-08T03:07:00.003Z,13.23
2017-05-08T03:08:08.961Z,13.2
2017-05-08T03:09:18.263Z,13.19
2017-05-08T03:10:27.524Z,13.26
2017-05-08T03:11:36.473Z,13.25
2017-05-08T03:12:45.435Z,13.12
2017-05-08T03:13:54.391Z,13.22
2017-05-08T03:15:03.348Z,13.23
2017-05-08T03:16:12.607Z,13.25
2017-05-08T03:17:21.566Z,13.29
2017-05-08T03:18:30.528Z,13.22
2017-05-08T03:19:39.497Z,13.2
2017-05-08T03:20:48.457Z,13.08
2017-05-08T03:21:57.716Z,13.22
2017-05-08T03:23:06.998Z,13.15
2017-05-08T03:24:16.308Z,13.25
2017-05-08T03:25:25.269Z,13.1
2017-05-08T03:26:34.317Z,13.25
2017-05-08T03:27:43.540Z,13.2
2017-05-08T03:28:52.823Z,13.17
2017-05-08T03:30:01.785Z,13.19
2017-05-08T03:31:10.752Z,13.22
2017-05-08T03:32:19.709Z,13.17
2017-05-08T03:33:28.972Z,13.19
2017-05-08T03:34:37.941Z,13.26
2017-05-08T03:35:46.891Z,13.23
2017-05-08T03:36:55.853Z,13.23
2017-05-08T03:38:04.807Z,13.23
2017-05-08T03:39:14.090Z,13.29
2017-05-08T03:40:23.050Z,13.26
2017-05-08T03:41:32.008Z,13.22
2017-05-08T03:42:40.970Z,13.23
2017-05-08T03:43:49.948Z,13.3
2017-05-08T03:44:59.161Z,13.25
2017-05-08T03:46:08.130Z,13.2
2017-05-08T03:47:17.097Z,13.2
2017-05-08T03:48:26.053Z,13.17
2017-05-08T03:49:35.019Z,13.22
2017-05-08T03:50:44.296Z,13.14
2017-05-08T03:51:53.289Z,13.19
2017-05-08T03:53:02.247Z,13.2
2017-05-08T03:54:11.201Z,13.25
2017-05-08T03:55:20.159Z,13.17
2017-05-08T03:56:29.364Z,13.19
2017-05-08T03:57:38.332Z,13.14
2017-05-08T03:58:47.386Z,13.2
2017-05-08T03:59:56.358Z,13.25
2017-05-08T04:01:05.321Z,13.2
2017-05-08T04:02:14.528Z,13.22
2017-05-08T04:03:23.496Z,13.25
2017-05-08T04:04:32.459Z,13.26
2017-05-08T04:05:41.503Z,13.23
2017-05-08T04:06:50.460Z,13.25
2017-05-08T04:07:59.744Z,13.22
2017-05-08T04:09:08.703Z,13.22
2017-05-08T04:10:17.749Z,13.25
2017-05-08T04:11:27.027Z,13.2
2017-05-08T04:12:35.988Z,13.22
2017-05-08T04:13:45.425Z,13.23
2017-05-08T04:14:54.472Z,13.23
2017-05-08T04:16:03.504Z,13.19
2017-05-08T04:17:12.519Z,13.17
2017-05-08T04:18:21.476Z,13.14
2017-05-08T04:19:30.738Z,13.22
2017-05-08T04:20:39.700Z,13.14
2017-05-08T04:21:48.660Z,13.12
2017-05-08T04:22:57.624Z,13.23
2017-05-08T04:24:06.579Z,13.12
2017-05-08T04:25:15.784Z,13.1
2017-05-08T04:26:24.741Z,13.04
2017-05-08T04:27:34.017Z,13.08
2017-05-08T04:28:42.980Z,13.08
2017-05-08T04:29:52.052Z,13.05
2017-05-08T04:31:01.263Z,13.07
2017-05-08T04:32:10.547Z,13.05
2017-05-08T04:33:19.507Z,13.08
2017-05-08T04:34:28.468Z,13.07
2017-05-08T04:35:37.427Z,13.1
2017-05-08T04:36:46.782Z,13.1
2017-05-08T04:37:55.741Z,13.03
2017-05-08T04:39:04.704Z,13.03
2017-05-08T04:40:13.659Z,13.08
2017-05-08T04:41:22.623Z,13.01
2017-05-08T04:42:31.901Z,13.01
2017-05-08T04:43:40.869Z,13.07
2017-05-08T04:44:49.829Z,13.07
2017-05-08T04:45:59.123Z,13.1
2017-05-08T04:47:08.086Z,13.08
2017-05-08T04:48:17.343Z,13.08
2017-05-08T04:49:26.299Z,13.1
2017-05-08T04:50:35.267Z,13.12
2017-05-08T04:51:44.221Z,13.1
2017-05-08T04:52:53.196Z,13.07
2017-05-08T04:54:02.537Z,13.03
2017-05-08T04:55:11.528Z,13.04
2017-05-08T04:56:20.488Z,12.97
2017-05-08T04:57:29.446Z,12.97
2017-05-08T04:58:38.495Z,12.97
2017-05-08T04:59:47.756Z,12.93
2017-05-08T05:00:56.801Z,12.9
2017-05-08T05:02:05.758Z,12.9
2017-05-08T05:03:14.713Z,12.92
2017-05-08T05:04:23.681Z,12.89
2017-05-08T05:05:32.974Z,12.87
2017-05-08T05:06:41.933Z,12.93
2017-05-08T05:07:50.893Z,12.95
2017-05-08T05:08:59.854Z,12.83
2017-05-08T05:10:08.816Z,12.9
2017-05-08T05:11:18.159Z,12.82
2017-05-08T05:12:27.114Z,12.92
2017-05-08T05:13:36.161Z,12.83
2017-05-08T05:14:45.128Z,12.71
2017-05-08T05:15:54.419Z,12.71
2017-05-08T05:17:03.684Z,12.7
2017-05-08T05:18:12.730Z,12.54
2017-05-08T05:19:21.780Z,12.54
2017-05-08T05:20:30.762Z,12.54
2017-05-08T05:21:39.737Z,12.54
2017-05-08T05:22:49.021Z,12.57
2017-05-08T05:23:57.994Z,12.5
2017-05-08T05:25:07.302Z,12.6
2017-05-08T05:26:16.286Z,12.54
2017-05-08T05:27:25.592Z,12.46
2017-05-08T05:28:34.869Z,12.46
2017-05-08T05:29:43.859Z,12.42
2017-05-08T05:30:52.929Z,12.42
2017-05-08T05:32:01.909Z,12.46
2017-05-08T05:33:10.893Z,12.49
2017-05-08T05:34:20.174Z,12.47
2017-05-08T05:35:29.155Z,12.46
2017-05-08T05:36:38.137Z,12.38
2017-05-08T05:37:47.212Z,12.41
2017-05-08T05:38:56.523Z,12.41
2017-05-08T05:40:05.808Z,12.39
2017-05-08T05:41:14.797Z,12.45
2017-05-08T05:42:24.183Z,12.38
2017-05-08T05:43:33.169Z,12.32
2017-05-08T05:44:42.144Z,12.31
2017-05-08T05:45:51.427Z,12.19
2017-05-08T05:47:00.436Z,12.27
2017-05-08T05:48:09.415Z,12.24
2017-05-08T05:49:18.577Z,12.34
2017-05-08T05:50:27.880Z,12.28
2017-05-08T05:51:37.159Z,12.38
2017-05-08T05:52:46.233Z,12.34
2017-05-08T05:53:55.303Z,12.34
2017-05-08T05:55:04.293Z,12.31
2017-05-08T05:56:13.603Z,12.41
2017-05-08T05:57:22.875Z,12.39
2017-05-08T05:58:32.247Z,12.39
2017-05-08T05:59:41.207Z,12.38
2017-05-08T06:00:50.163Z,12.45
2017-05-08T06:01:59.127Z,12.52
2017-05-08T06:03:08.651Z,12.42
2017-05-08T06:04:17.610Z,12.49
2017-05-08T06:05:26.580Z,12.49
2017-05-08T06:06:35.536Z,12.47
2017-05-08T06:07:44.494Z,12.57
2017-05-08T06:08:53.751Z,12.57
2017-05-08T06:10:02.706Z,12.49
2017-05-08T06:11:11.661Z,12.56
2017-05-08T06:12:20.617Z,12.54
2017-05-08T06:13:29.570Z,12.6
2017-05-08T06:14:38.780Z,12.7
2017-05-08T06:15:47.738Z,12.7
2017-05-08T06:16:57.020Z,12.75
2017-05-08T06:18:06.064Z,12.65
2017-05-08T06:19:15.017Z,12.68
2017-05-08T06:20:24.276Z,12.74
2017-05-08T06:21:33.237Z,12.7
2017-05-08T06:22:42.192Z,12.72
2017-05-08T06:23:51.151Z,12.7
2017-05-08T06:25:00.125Z,12.68
2017-05-08T06:26:09.702Z,12.89
2017-05-08T06:27:18.653Z,12.86
2017-05-08T06:28:27.607Z,12.82
2017-05-08T06:29:36.561Z,12.9
2017-05-08T06:30:45.526Z,12.95
2017-05-08T06:31:54.877Z,12.87
2017-05-08T06:33:03.833Z,13
2017-05-08T06:34:12.788Z,12.96
2017-05-08T06:35:21.738Z,12.97
2017-05-08T06:36:30.691Z,12.97
2017-05-08T06:37:39.947Z,12.86
2017-05-08T06:38:48.950Z,12.93
2017-05-08T06:39:57.913Z,12.89
2017-05-08T06:41:06.868Z,12.97
2017-05-08T06:42:15.822Z,12.93
2017-05-08T06:43:25.125Z,13
2017-05-08T06:44:34.081Z,12.93
2017-05-08T06:45:43.124Z,12.96
2017-05-08T06:46:52.084Z,12.89
2017-05-08T06:48:01.067Z,13
2017-05-08T06:49:10.330Z,12.87
2017-05-08T06:50:19.288Z,13
2017-05-08T06:51:28.251Z,13.04
2017-05-08T06:52:37.208Z,13.15
2017-05-08T06:53:46.162Z,13.15
2017-05-08T06:54:55.514Z,13.17
2017-05-08T06:56:04.475Z,13.22
2017-05-08T06:57:13.767Z,13.22
2017-05-08T06:58:22.722Z,13.28
2017-05-08T06:59:31.768Z,13.3
2017-05-08T07:00:41.026Z,13.36
2017-05-08T07:01:50.068Z,13.42
2017-05-08T07:02:59.350Z,13.39
2017-05-08T07:04:08.312Z,13.41
2017-05-08T07:05:17.271Z,13.36
2017-05-08T07:06:26.474Z,13.23
2017-05-08T07:07:35.429Z,13.23
2017-05-08T07:08:44.394Z,13.19
2017-05-08T07:09:53.348Z,13.11
2017-05-08T07:11:02.309Z,13.1
2017-05-08T07:12:11.593Z,13.12
2017-05-08T07:13:20.559Z,13.07
2017-05-08T07:14:29.513Z,13.12
2017-05-08T07:15:38.466Z,13.05
2017-05-08T07:16:47.421Z,12.96
2017-05-08T07:17:56.626Z,12.95
2017-05-08T07:19:05.638Z,12.92
2017-05-08T07:20:14.600Z,12.86
2017-05-08T07:21:23.560Z,12.92
2017-05-08T07:22:32.523Z,12.85
2017-05-08T07:23:41.777Z,12.68
2017-05-08T07:24:50.764Z,12.77
2017-05-08T07:25:59.722Z,12.74
2017-05-08T07:27:08.752Z,12.7
2017-05-08T07:28:17.711Z,12.72
2017-05-08T07:29:26.924Z,12.56
2017-05-08T07:30:35.887Z,12.52
2017-05-08T07:31:44.849Z,12.52
2017-05-08T07:32:53.809Z,12.45
2017-05-08T07:34:02.769Z,12.45
2017-05-08T07:35:12.022Z,12.46
2017-05-08T07:36:20.987Z,12.54
2017-05-08T07:37:29.940Z,12.45
2017-05-08T07:38:38.896Z,12.42
2017-05-08T07:39:47.852Z,12.45
2017-05-08T07:40:57.113Z,12.37
2017-05-08T07:42:06.076Z,12.42
2017-05-08T07:43:15.121Z,12.49
2017-05-08T07:44:24.079Z,12.47
2017-05-08T07:45:33.043Z,12.5
2017-05-08T07:46:42.847Z,12.46
2017-05-08T07:47:52.577Z,12.46
2017-05-08T07:49:01.771Z,12.47
2017-05-08T07:50:10.844Z,12.52
2017-05-08T07:51:20.121Z,12.42
2017-05-08T07:52:29.452Z,12.39
2017-05-08T07:53:38.449Z,12.39
2017-05-08T07:54:47.411Z,12.37
2017-05-08T07:55:56.369Z,12.34
2017-05-08T07:57:05.397Z,12.23
2017-05-08T07:58:15.167Z,12.24
2017-05-08T07:59:24.304Z,12.2
2017-05-08T08:00:33.326Z,12.19
2017-05-08T08:01:42.286Z,12.16
2017-05-08T08:02:51.242Z,12.16
2017-05-08T08:04:00.549Z,12.07
2017-05-08T08:05:09.512Z,11.95
2017-05-08T08:06:18.464Z,12.01
2017-05-08T08:07:27.421Z,11.95
2017-05-08T08:08:36.378Z,12.07
2017-05-08T08:09:45.586Z,12.02
2017-05-08T08:10:54.629Z,12.05
2017-05-08T08:12:03.590Z,11.98
2017-05-08T08:13:12.547Z,11.98
2017-05-08T08:14:21.518Z,11.91
2017-05-08T08:15:30.775Z,11.96
2017-05-08T08:16:39.735Z,11.83
2017-05-08T08:17:48.693Z,11.86
2017-05-08T08:18:57.662Z,11.85
2017-05-08T08:20:06.623Z,11.83
2017-05-08T08:21:15.885Z,11.83
2017-05-08T08:22:24.842Z,11.9
2017-05-08T08:23:33.795Z,11.91
2017-05-08T08:24:42.761Z,11.86
2017-05-08T08:25:51.722Z,11.85
2017-05-08T08:27:00.941Z,11.78
2017-05-08T08:28:09.897Z,11.76
2017-05-08T08:29:18.885Z,11.72
2017-05-08T08:30:28.424Z,11.69
2017-05-08T08:31:38.281Z,11.67
2017-05-08T08:32:47.546Z,11.7
2017-05-08T08:33:56.540Z,11.64
2017-05-08T08:35:05.537Z,11.73
2017-05-08T08:36:14.570Z,11.7
2017-05-08T08:37:23.562Z,11.75
2017-05-08T08:38:32.914Z,11.75
2017-05-08T08:39:42.199Z,11.79
2017-05-08T08:40:52.914Z,11.75
2017-05-08T08:42:01.868Z,11.85
2017-05-08T08:43:10.981Z,11.8
2017-05-08T08:44:20.236Z,11.79
2017-05-08T08:45:29.383Z,11.75
2017-05-08T08:46:38.336Z,11.67
2017-05-08T08:47:47.407Z,11.62
2017-05-08T08:48:56.607Z,11.42
2017-05-08T08:50:05.964Z,11.49
2017-05-08T08:51:15.043Z,11.44
2017-05-08T08:52:24.274Z,11.46
2017-05-08T08:53:33.251Z,11.47
2017-05-08T08:54:42.209Z,11.46
2017-05-08T08:55:51.458Z,11.44
2017-05-08T08:57:00.635Z,11.58
2017-05-08T08:58:09.685Z,11.61
2017-05-08T08:59:18.642Z,11.62
2017-05-08T09:00:27.642Z,11.69
2017-05-08T09:01:36.898Z,11.72
2017-05-08T09:02:45.912Z,11.69
2017-05-08T09:03:54.931Z,11.78
2017-05-08T09:05:03.984Z,11.72
2017-05-08T09:06:12.946Z,11.76
2017-05-08T09:07:22.205Z,11.9
2017-05-08T09:08:31.163Z,11.91
2017-05-08T09:09:40.121Z,11.91
2017-05-08T09:10:49.081Z,11.9
2017-05-08T09:11:58.128Z,11.98
2017-05-08T09:13:07.388Z,12.12
2017-05-08T09:14:16.354Z,12.17
2017-05-08T09:15:25.304Z,12.09
2017-05-08T09:16:34.258Z,12.1
2017-05-08T09:17:43.222Z,12.23
2017-05-08T09:18:52.483Z,12.27
2017-05-08T09:20:01.439Z,12.19
2017-05-08T09:21:10.397Z,12.24
2017-05-08T09:22:19.349Z,12.34
2017-05-08T09:23:28.307Z,12.34
2017-05-08T09:24:37.566Z,12.37
2017-05-08T09:25:46.526Z,12.38
2017-05-08T09:26:55.667Z,12.42
2017-05-08T09:28:04.799Z,12.45
2017-05-08T09:29:13.759Z,12.41
2017-05-08T09:30:23.058Z,12.52
2017-05-08T09:31:32.337Z,12.56
2017-05-08T09:32:41.297Z,12.68
2017-05-08T09:33:50.249Z,12.68
2017-05-08T09:34:59.208Z,12.56
2017-05-08T09:36:08.479Z,12.57
2017-05-08T09:37:17.440Z,12.67
2017-05-08T09:38:26.400Z,12.68
2017-05-08T09:39:35.356Z,12.7
2017-05-08T09:40:44.313Z,12.7
2017-05-08T09:41:53.577Z,12.67
2017-05-08T09:43:02.543Z,12.71
2017-05-08T09:44:11.503Z,12.74
2017-05-08T09:45:20.468Z,12.85
2017-05-08T09:46:29.445Z,12.74
2017-05-08T09:47:38.708Z,12.83
2017-05-08T09:48:47.673Z,12.7
2017-05-08T09:49:56.626Z,12.71
2017-05-08T09:51:05.582Z,12.71
2017-05-08T09:52:14.542Z,12.71
2017-05-08T09:53:23.755Z,12.72
2017-05-08T09:54:32.707Z,12.68
2017-05-08T09:55:41.669Z,12.71
2017-05-08T09:56:50.626Z,12.65
2017-05-08T09:57:59.585Z,12.74
2017-05-08T09:59:08.846Z,12.71
2017-05-08T10:00:18.146Z,12.71
2017-05-08T10:01:27.103Z,12.77
2017-05-08T10:02:36.056Z,12.77
2017-05-08T10:03:45.015Z,12.85
2017-05-08T10:04:54.362Z,12.72
2017-05-08T10:06:03.321Z,12.82
2017-05-08T10:07:12.408Z,12.89
2017-05-08T10:08:21.364Z,12.86
2017-05-08T10:09:30.652Z,12.87
2017-05-08T10:10:39.909Z,12.92
2017-05-08T10:11:48.870Z,12.86
2017-05-08T10:12:57.922Z,12.86
2017-05-08T10:14:06.914Z,12.92
2017-05-08T10:15:16.214Z,12.9
2017-05-08T10:16:25.511Z,12.92
2017-05-08T10:17:34.474Z,12.89
2017-05-08T10:18:43.432Z,13.01
2017-05-08T10:19:52.401Z,12.97
2017-05-08T10:21:01.358Z,12.97
2017-05-08T10:22:10.569Z,12.86
2017-05-08T10:23:19.535Z,12.9
2017-05-08T10:24:28.493Z,12.92
2017-05-08T10:25:37.449Z,12.95
2017-05-08T10:26:46.403Z,12.93
2017-05-08T10:27:55.661Z,12.9
2017-05-08T10:29:04.629Z,12.86
2017-05-08T10:30:13.582Z,12.87
2017-05-08T10:31:23.020Z,13.01
2017-05-08T10:32:32.147Z,13.01
2017-05-08T10:33:41.412Z,12.95
2017-05-08T10:34:50.364Z,13.07
2017-05-08T10:35:59.324Z,13.01
2017-05-08T10:37:08.601Z,12.97
2017-05-08T10:38:17.558Z,13.07
2017-05-08T10:39:26.819Z,13
2017-05-08T10:40:35.774Z,13
2017-05-08T10:41:44.737Z,13.03
2017-05-08T10:42:53.693Z,13
2017-05-08T10:44:02.674Z,12.93
2017-05-08T10:45:11.933Z,12.86
2017-05-08T10:46:20.893Z,12.92
2017-05-08T10:47:29.845Z,12.9
2017-05-08T10:48:38.972Z,12.95
2017-05-08T10:49:47.942Z,13
2017-05-08T10:50:57.194Z,12.97
2017-05-08T10:52:06.149Z,12.9
2017-05-08T10:53:15.103Z,12.92
2017-05-08T10:54:24.066Z,12.96
2017-05-08T10:55:33.023Z,12.96
2017-05-08T10:56:42.229Z,12.92
2017-05-08T10:57:51.190Z,12.96
2017-05-08T10:59:00.148Z,12.97
2017-05-08T11:00:09.108Z,13.04
2017-05-08T11:01:18.062Z,13.12
2017-05-08T11:02:27.454Z,13.14
2017-05-08T11:03:36.727Z,13.14
2017-05-08T11:04:45.689Z,13.2
2017-05-08T11:05:54.650Z,13.12
2017-05-08T11:07:03.615Z,13.07
2017-05-08T11:08:12.875Z,13.07
2017-05-08T11:09:21.835Z,12.96
2017-05-08T11:10:30.789Z,12.86
2017-05-08T11:11:39.837Z,12.71
2017-05-08T11:12:48.795Z,12.67
2017-05-08T11:13:58.052Z,12.49
2017-05-08T11:15:07.016Z,12.41
2017-05-08T11:16:15.982Z,12.35
2017-05-08T11:17:25.352Z,12.34
2017-05-08T11:18:34.634Z,12.23
2017-05-08T11:19:43.893Z,12.24
2017-05-08T11:20:52.848Z,12.28
2017-05-08T11:22:01.807Z,12.29
2017-05-08T11:23:10.765Z,12.24
2017-05-08T11:24:19.727Z,12.23
2017-05-08T11:25:28.983Z,12.24
2017-05-08T11:26:37.946Z,12.2
2017-05-08T11:27:46.904Z,12.24
2017-05-08T11:28:55.859Z,12.24
2017-05-08T11:30:04.825Z,12.1
2017-05-08T11:31:14.092Z,12.09
2017-05-08T11:32:23.048Z,12.1
2017-05-08T11:33:32.004Z,12.09
2017-05-08T11:34:40.962Z,12.07
2017-05-08T11:35:49.922Z,12.05
2017-05-08T11:36:59.175Z,12.05
2017-05-08T11:38:08.163Z,12.17
2017-05-08T11:39:17.205Z,12.2
2017-05-08T11:40:26.158Z,12.21
2017-05-08T11:41:35.445Z,12.24
2017-05-08T11:42:44.703Z,12.28
2017-05-08T11:43:53.658Z,12.31
2017-05-08T11:45:02.618Z,12.34
2017-05-08T11:46:11.578Z,12.31
2017-05-08T11:47:20.541Z,12.39
2017-05-08T11:48:29.800Z,12.39
2017-05-08T11:49:38.753Z,12.38
2017-05-08T11:50:47.800Z,12.39
2017-05-08T11:51:56.761Z,12.41
2017-05-08T11:53:05.716Z,12.32
2017-05-08T11:54:14.931Z,12.42
2017-05-08T11:55:23.897Z,12.53
2017-05-08T11:56:32.859Z,12.5
2017-05-08T11:57:41.812Z,12.53
2017-05-08T11:58:50.771Z,12.53
2017-05-08T12:00:00.033Z,12.46
2017-05-08T12:01:08.992Z,12.46
2017-05-08T12:02:17.948Z,12.38
2017-05-08T12:03:27.000Z,12.41
2017-05-08T12:04:36.281Z,12.31
2017-05-08T12:05:45.545Z,12.37
2017-05-08T12:06:54.501Z,12.35
2017-05-08T12:08:03.455Z,12.34
2017-05-08T12:09:12.438Z,12.39
2017-05-08T12:10:21.393Z,12.41
2017-05-08T12:11:30.653Z,12.39
2017-05-08T12:12:39.610Z,12.52
2017-05-08T12:13:48.571Z,12.47
2017-05-08T12:14:57.528Z,12.47
2017-05-08T12:16:06.487Z,12.56
2017-05-08T12:17:15.746Z,12.52
2017-05-08T12:18:24.799Z,12.5
2017-05-08T12:19:33.756Z,12.57
2017-05-08T12:20:42.713Z,12.53
2017-05-08T12:21:51.669Z,12.5
2017-05-08T12:23:00.876Z,12.54
2017-05-08T12:24:09.829Z,12.56
2017-05-08T12:25:18.789Z,12.56
2017-05-08T12:26:27.746Z,12.54
2017-05-08T12:27:36.699Z,12.68
2017-05-08T12:28:45.903Z,12.71
2017-05-08T12:29:54.945Z,12.71
2017-05-08T12:31:04.240Z,12.71
2017-05-08T12:32:13.201Z,12.71
2017-05-08T12:33:22.163Z,12.71
2017-05-08T12:34:31.456Z,12.68
2017-05-08T12:35:40.416Z,12.62
2017-05-08T12:36:49.375Z,12.68
2017-05-08T12:37:58.338Z,12.67
2017-05-08T12:39:07.292Z,12.65
2017-05-08T12:40:16.551Z,12.75
2017-05-08T12:41:25.509Z,12.67
2017-05-08T12:42:34.465Z,12.68
2017-05-08T12:43:43.760Z,12.68
2017-05-08T12:44:52.715Z,12.59
2017-05-08T12:46:01.921Z,12.59
2017-05-08T12:47:10.961Z,12.54
2017-05-08T12:48:19.917Z,12.54
2017-05-08T12:49:29.201Z,12.49
2017-05-08T12:50:38.155Z,12.46
2017-05-08T12:51:47.419Z,12.47
2017-05-08T12:52:56.374Z,12.53
2017-05-08T12:54:05.427Z,12.53
2017-05-08T12:55:14.392Z,12.59
2017-05-08T12:56:23.669Z,12.56
2017-05-08T12:57:32.886Z,12.62
2017-05-08T12:58:41.846Z,12.5
2017-05-08T12:59:50.891Z,12.52
2017-05-08T13:00:59.853Z,12.49
2017-05-08T13:02:08.817Z,12.41
2017-05-08T13:03:18.114Z,12.21
2017-05-08T13:04:27.072Z,11.95
2017-05-08T13:05:36.113Z,11.58
2017-05-08T13:06:45.074Z,11.24
2017-05-08T13:07:54.046Z,11.07
2017-05-08T13:09:03.251Z,10.91
2017-05-08T13:10:12.205Z,10.68
2017-05-08T13:11:21.250Z,10.51
2017-05-08T13:12:30.215Z,10.48
2017-05-08T13:13:39.273Z,10.52
2017-05-08T13:14:48.853Z,10.44
2017-05-08T13:15:57.811Z,10.51
2017-05-08T13:17:06.767Z,10.48
2017-05-08T13:18:15.721Z,10.34
2017-05-08T13:19:24.671Z,10.2
2017-05-08T13:20:34.015Z,10.17
2017-05-08T13:21:42.969Z,9.99
2017-05-08T13:22:51.925Z,10.02
2017-05-08T13:24:00.883Z,10.01
2017-05-08T13:25:09.841Z,9.9
2017-05-08T13:26:19.145Z,9.74
2017-05-08T13:27:28.098Z,9.65
2017-05-08T13:28:37.053Z,9.64
2017-05-08T13:29:46.425Z,9.51
2017-05-08T13:30:55.384Z,9.51
2017-05-08T13:32:04.639Z,9.48
2017-05-08T13:33:13.594Z,9.47
2017-05-08T13:34:22.880Z,9.46
2017-05-08T13:35:31.832Z,9.46
2017-05-08T13:36:40.784Z,9.43
2017-05-08T13:37:50.041Z,9.47
2017-05-08T13:38:58.998Z,9.4
2017-05-08T13:40:07.948Z,9.47
2017-05-08T13:41:16.898Z,9.47
2017-05-08T13:42:25.852Z,9.54
2017-05-08T13:43:35.192Z,9.51
2017-05-08T13:44:44.177Z,9.5
2017-05-08T13:45:53.131Z,9.48
2017-05-08T13:47:02.085Z,9.69
2017-05-08T13:48:11.045Z,9.81
2017-05-08T13:49:20.248Z,9.86
2017-05-08T13:50:29.206Z,9.86
2017-05-08T13:51:38.339Z,10.02
2017-05-08T13:52:47.296Z,9.94
2017-05-08T13:53:56.253Z,9.89
2017-05-08T13:55:05.509Z,10.01
2017-05-08T13:56:14.461Z,10.02
2017-05-08T13:57:23.413Z,10.14
2017-05-08T13:58:32.394Z,10.07
2017-05-08T13:59:41.432Z,10.15
2017-05-08T14:00:50.688Z,10.11
2017-05-08T14:01:59.734Z,10.11
2017-05-08T14:03:08.775Z,10.08
2017-05-08T14:04:17.730Z,10.08
2017-05-08T14:05:26.687Z,10.12
2017-05-08T14:06:35.942Z,10.08
2017-05-08T14:07:44.897Z,10.14
2017-05-08T14:08:53.853Z,10.11
2017-05-08T14:10:02.807Z,10.17
2017-05-08T14:11:11.765Z,10.2
2017-05-08T14:12:20.974Z,10.2
2017-05-08T14:13:30.014Z,10.15
2017-05-08T14:14:39.079Z,10.12
2017-05-08T14:15:48.354Z,10.17
2017-05-08T14:16:57.632Z,10.14
2017-05-08T14:18:06.842Z,10.15
2017-05-08T14:19:15.792Z,10.2
2017-05-08T14:20:24.837Z,10.2
2017-05-08T14:21:33.791Z,10.15
2017-05-08T14:22:42.744Z,10.08
2017-05-08T14:23:52.007Z,10.07
2017-05-08T14:25:01.049Z,10.08
2017-05-08T14:26:10.018Z,10.02
2017-05-08T14:27:18.977Z,10.01
2017-05-08T14:28:27.926Z,10.01
2017-05-08T14:29:37.180Z,9.99
2017-05-08T14:30:46.132Z,10.02
2017-05-08T14:31:55.085Z,9.86
2017-05-08T14:33:04.043Z,9.86
2017-05-08T14:34:13.001Z,9.91
2017-05-08T14:35:22.203Z,9.83
2017-05-08T14:36:31.158Z,9.75
2017-05-08T14:37:40.110Z,9.65
2017-05-08T14:38:49.061Z,9.66
2017-05-08T14:39:58.019Z,9.54
2017-05-08T14:41:07.278Z,9.64
2017-05-08T14:42:16.319Z,9.48
2017-05-08T14:43:25.277Z,9.51
2017-05-08T14:44:34.322Z,9.51
2017-05-08T14:45:43.275Z,9.54
2017-05-08T14:46:52.486Z,9.54
2017-05-08T14:48:01.444Z,9.58
2017-05-08T14:49:10.481Z,9.46
2017-05-08T14:50:19.521Z,9.53
2017-05-08T14:51:28.473Z,9.51
2017-05-08T14:52:38.009Z,9.51
2017-05-08T14:53:46.961Z,9.58
2017-05-08T14:54:55.916Z,9.53